createdAt,value
2019-01-25T00:04:41.103Z,26.37
2019-01-25T00:09:44.911Z,26.47
2019-01-25T00:14:48.636Z,27.70
2019-01-25T00:19:52.343Z,26.10
2019-01-25T00:24:56.092Z,26.57
2019-01-25T00:29:59.847Z,26.50
2019-01-25T00:35:03.951Z,26.40
2019-01-25T00:40:10.572Z,26.67
2019-01-25T00:45:14.911Z,27.30
2019-01-25T00:50:19.457Z,26.53
2019-01-25T00:55:23.202Z,25.03
2019-01-25T01:00:27.463Z,25.30
2019-01-25T01:05:31.345Z,25.07
2019-01-25T01:10:35.145Z,25.53
2019-01-25T01:15:38.865Z,25.57
2019-01-25T01:20:42.579Z,23.87
2019-01-25T01:25:46.358Z,24.20
2019-01-25T01:30:50.077Z,23.90
2019-01-25T01:35:53.778Z,23.37
2019-01-25T01:40:57.492Z,23.20
2019-01-25T01:46:01.199Z,23.40
2019-01-25T01:51:05.047Z,23.37
2019-01-25T01:56:08.749Z,26.47
2019-01-25T02:01:12.780Z,24.13
2019-01-25T02:06:16.496Z,23.07
2019-01-25T02:11:20.212Z,23.20
2019-01-25T02:16:23.907Z,23.63
2019-01-25T02:21:27.607Z,24.93
2019-01-25T02:26:31.316Z,25.27
2019-01-25T02:31:35.038Z,26.20
2019-01-25T02:36:39.040Z,25.47
2019-01-25T02:41:42.735Z,24.87
2019-01-25T03:53:11.462Z,24.50
2019-01-25T03:58:15.158Z,24.30
2019-01-25T04:03:18.835Z,23.93
2019-01-25T04:08:22.581Z,25.90
2019-01-25T04:13:26.507Z,23.43
2019-01-25T04:18:30.188Z,23.30
2019-01-25T04:23:33.886Z,23.57
2019-01-25T04:28:37.628Z,23.73
2019-01-25T04:33:44.338Z,23.50
2019-01-25T04:38:48.291Z,23.30
2019-01-25T04:43:51.967Z,23.83
2019-01-25T04:48:55.636Z,23.57
2019-01-25T04:53:59.383Z,22.13
2019-01-25T04:59:03.042Z,22.40
2019-01-25T05:04:07.406Z,23.30
2019-01-25T05:09:11.155Z,22.63
2019-01-25T05:14:14.841Z,24.17
2019-01-25T05:19:18.519Z,24.13
2019-01-25T05:24:22.198Z,23.97
2019-01-25T05:29:32.780Z,23.83
2019-01-25T05:34:36.447Z,23.97
2019-01-25T05:39:40.418Z,23.53
2019-01-25T05:44:44.144Z,22.70
2019-01-25T05:49:47.853Z,22.67
2019-01-25T05:54:51.546Z,24.20
2019-01-25T05:59:55.230Z,22.93
2019-01-25T06:04:59.235Z,24.57
2019-01-25T06:16:05.776Z,24.90
2019-01-25T06:21:09.440Z,23.00
2019-01-25T06:26:14.016Z,23.37
2019-01-25T06:31:19.772Z,23.77
2019-01-25T06:36:26.263Z,23.00
2019-01-25T06:41:30.318Z,24.03
2019-01-25T06:46:34.746Z,23.10
2019-01-25T06:51:38.630Z,23.77
2019-01-25T06:56:49.593Z,22.77
2019-01-25T07:02:00.844Z,23.43
2019-01-25T07:07:06.750Z,24.13
2019-01-25T07:12:10.479Z,23.77
2019-01-25T07:17:14.463Z,23.57
2019-01-25T07:22:18.229Z,24.17
2019-01-25T07:27:22.257Z,23.87
2019-01-25T07:32:26.273Z,23.73
2019-01-25T07:37:30.634Z,23.83
2019-01-25T07:42:34.612Z,23.83
2019-01-25T07:47:38.575Z,24.17
2019-01-25T07:52:42.368Z,24.53
2019-01-25T07:57:46.120Z,23.53
2019-01-25T08:02:49.815Z,23.77
2019-01-25T08:07:53.560Z,24.93
2019-01-25T08:12:57.319Z,25.20
2019-01-25T08:18:00.995Z,25.17
2019-01-25T08:23:04.678Z,24.97
2019-01-25T08:28:08.370Z,25.17
2019-01-25T08:33:17.564Z,23.00
2019-01-25T08:38:21.405Z,25.50
2019-01-25T08:43:25.121Z,24.80
2019-01-25T08:48:29.255Z,26.00
2019-01-25T08:53:33.123Z,27.70
2019-01-25T08:58:36.849Z,28.63
2019-01-25T09:03:40.523Z,27.30
2019-01-25T09:08:44.263Z,27.40
2019-01-25T09:13:47.948Z,27.23
2019-01-25T09:18:51.610Z,26.63
2019-01-25T09:23:55.279Z,27.57
2019-01-25T09:28:58.954Z,27.13
2019-01-25T09:34:02.631Z,26.97
2019-01-25T09:39:09.003Z,28.80
2019-01-25T09:44:12.667Z,25.83
2019-01-25T09:49:16.686Z,26.70
2019-01-25T09:54:20.607Z,26.57
2019-01-25T09:59:24.274Z,25.40
2019-01-25T10:04:27.963Z,24.53
2019-01-25T10:09:31.631Z,24.13
2019-01-25T10:14:35.307Z,25.03
2019-01-25T10:19:38.971Z,25.20
2019-01-25T10:24:43.038Z,27.63
2019-01-25T10:29:46.714Z,24.40
2019-01-25T10:34:50.378Z,28.63
2019-01-25T10:39:54.042Z,32.80
2019-01-25T10:44:57.694Z,27.87
2019-01-25T10:50:01.362Z,25.67
2019-01-25T10:55:05.667Z,26.17
2019-01-25T11:00:12.333Z,29.57
2019-01-25T11:05:19.036Z,24.10
2019-01-25T11:10:23.003Z,21.53
2019-01-25T11:15:26.691Z,20.67
2019-01-25T11:20:30.346Z,15.37
2019-01-25T11:25:37.013Z,13.50
2019-01-25T11:30:40.807Z,13.40
2019-01-25T11:35:44.771Z,14.73
2019-01-25T11:40:48.434Z,15.20
2019-01-25T11:45:54.370Z,14.70
2019-01-25T11:50:57.532Z,15.27
2019-01-25T11:56:01.210Z,14.17
2019-01-25T12:01:05.621Z,14.27
2019-01-25T12:06:09.363Z,14.17
2019-01-25T12:11:13.019Z,13.87
2019-01-25T12:16:16.690Z,14.30
2019-01-25T12:21:20.759Z,14.03
2019-01-25T12:26:24.956Z,13.80
2019-01-25T12:31:28.611Z,13.63
2019-01-25T12:36:32.277Z,13.57
2019-01-25T12:41:35.934Z,14.53
2019-01-25T12:46:39.599Z,15.20
2019-01-25T12:51:50.815Z,14.10
2019-01-25T12:56:54.487Z,14.50
2019-01-25T13:01:59.252Z,14.53
2019-01-25T13:07:02.927Z,14.00
2019-01-25T13:12:06.582Z,15.93
2019-01-25T13:17:10.244Z,14.00
2019-01-25T13:22:13.912Z,14.27
2019-01-25T13:27:17.909Z,17.80
2019-01-25T13:32:21.567Z,18.03
2019-01-25T13:37:25.243Z,15.13
2019-01-25T13:42:29.053Z,17.07
2019-01-25T13:47:32.724Z,17.47
2019-01-25T13:52:36.390Z,18.17
2019-01-25T13:57:40.046Z,18.60
2019-01-25T14:02:49.371Z,18.90
2019-01-25T14:07:53.387Z,18.20
2019-01-25T14:12:57.196Z,17.40
2019-01-25T14:18:01.167Z,18.03
2019-01-25T14:23:05.828Z,17.70
2019-01-25T14:28:28.064Z,17.20
2019-01-25T14:33:31.793Z,17.03
2019-01-25T14:38:35.477Z,17.63
2019-01-25T14:43:39.176Z,16.50
2019-01-25T14:48:42.875Z,16.87
2019-01-25T14:53:51.218Z,16.73
2019-01-25T14:58:54.886Z,19.03
2019-01-25T15:03:58.627Z,17.80
2019-01-25T15:09:02.295Z,18.13
2019-01-25T15:14:06.673Z,16.93
2019-01-25T15:19:14.477Z,16.83
2019-01-25T15:24:18.208Z,16.87
2019-01-25T15:29:48.113Z,16.07
2019-01-25T15:34:51.869Z,16.63
2019-01-25T15:39:55.548Z,16.07
2019-01-25T15:45:00.507Z,17.43
2019-01-25T15:50:06.463Z,17.07
2019-01-25T16:01:54.936Z,24.67
2019-01-25T16:06:59.280Z,18.50
2019-01-25T16:12:03.137Z,36.57
2019-01-25T16:17:08.623Z,22.07
2019-01-25T16:22:12.472Z,19.60
2019-01-25T16:27:16.524Z,19.27
2019-01-25T16:32:20.240Z,17.77
2019-01-25T16:37:23.955Z,17.93
2019-01-25T16:42:28.519Z,18.43
2019-01-25T16:47:45.977Z,18.90
2019-01-25T16:52:49.872Z,19.97
2019-01-25T16:57:54.538Z,17.60
2019-01-25T17:02:58.534Z,18.30
2019-01-25T17:08:02.269Z,18.80
2019-01-25T17:13:06.059Z,20.90
2019-01-25T17:18:10.183Z,20.07
2019-01-25T17:23:13.859Z,21.27
2019-01-25T17:28:17.523Z,20.17
2019-01-25T17:33:21.203Z,21.23
2019-01-25T17:38:24.870Z,20.97
2019-01-25T17:43:28.540Z,20.70
2019-01-25T17:48:33.367Z,21.67
2019-01-25T17:53:37.043Z,21.63
2019-01-25T17:58:40.720Z,22.47
2019-01-25T18:03:44.435Z,22.17
2019-01-25T18:08:48.100Z,22.17
2019-01-25T18:13:51.759Z,25.37
2019-01-25T18:18:55.422Z,25.03
2019-01-25T18:23:59.079Z,24.47
2019-01-25T18:29:06.102Z,23.73
2019-01-25T18:34:09.768Z,24.90
2019-01-25T18:39:13.892Z,24.83
2019-01-25T18:44:17.570Z,26.33
2019-01-25T18:49:22.141Z,26.83
2019-01-25T18:54:25.938Z,25.53
2019-01-25T18:59:29.658Z,26.73
2019-01-25T19:04:33.367Z,25.23
2019-01-25T19:09:38.533Z,27.67
2019-01-25T19:14:43.925Z,25.77
2019-01-25T19:19:47.771Z,25.23
2019-01-25T19:24:51.755Z,27.07
2019-01-25T19:29:55.418Z,26.57
2019-01-25T19:34:59.160Z,27.20
2019-01-25T19:40:05.775Z,25.63
2019-01-25T19:45:12.056Z,26.20
2019-01-25T19:50:17.252Z,25.23
2019-01-25T19:55:23.062Z,38.33
2019-01-25T20:00:29.559Z,25.87
2019-01-25T20:05:33.524Z,25.70
2019-01-25T20:10:37.547Z,24.73
2019-01-25T20:15:41.334Z,25.13
2019-01-25T20:20:45.371Z,25.07
2019-01-25T20:25:49.522Z,24.50
2019-01-25T20:30:53.758Z,25.70
2019-01-25T20:35:57.924Z,26.53
2019-01-25T20:41:02.409Z,26.07
2019-01-25T20:46:06.210Z,26.53
2019-01-25T20:51:10.274Z,25.63
2019-01-25T20:56:14.027Z,26.63
2019-01-25T21:01:17.761Z,26.90
2019-01-25T21:06:21.510Z,26.97
2019-01-25T21:11:25.177Z,26.50
2019-01-25T21:16:28.843Z,27.17
2019-01-25T21:21:32.503Z,25.97
2019-01-25T21:26:36.146Z,28.07
2019-01-25T21:31:39.833Z,27.07
2019-01-25T21:36:43.495Z,25.37
2019-01-25T21:41:47.230Z,27.60
2019-01-25T21:46:50.907Z,25.60
2019-01-25T21:51:54.571Z,27.90
2019-01-25T21:56:58.247Z,24.97
2019-01-25T22:02:01.991Z,24.43
2019-01-25T22:07:05.814Z,24.67
2019-01-25T22:12:09.470Z,23.53
2019-01-25T22:17:13.483Z,22.87
2019-01-25T22:22:17.138Z,21.43
2019-01-25T22:27:20.819Z,22.20
2019-01-25T22:32:24.822Z,21.63
2019-01-25T22:37:28.506Z,20.80
2019-01-25T22:42:32.190Z,19.57
2019-01-25T22:47:35.879Z,19.77
2019-01-25T22:52:39.906Z,20.07
2019-01-25T22:57:43.706Z,20.00
2019-01-25T23:02:47.487Z,18.80
2019-01-25T23:07:51.234Z,19.30
2019-01-25T23:12:54.903Z,18.73
2019-01-25T23:17:58.655Z,18.70
2019-01-25T23:23:02.416Z,18.43
2019-01-25T23:28:06.378Z,18.97
2019-01-25T23:33:10.076Z,17.50
2019-01-25T23:38:13.755Z,18.97
2019-01-25T23:43:17.431Z,18.40
2019-01-25T23:48:21.100Z,17.73
2019-01-25T23:53:25.075Z,17.80
2019-01-25T23:58:28.759Z,18.43
